VLVT/VTE METAR and TAF weather

Enter ICAO airport designator
Station Type Date Time Source
VLVT METAR 2024/04/15 10:00 UTC NOAA

VLVT 151000Z 00000KT 7000 FEW040 BKN083 34/28 Q1006 NOSIG


Station Type Date Time Source
VLVT Decoded METAR 2024/04/15 10:00 UTC NOAA

Vientiane, Laos (VLVT) 17-57N 102-34E 171M
Apr 15, 2024 - 06:00 AM EDT / 2024.04.15 1000 UTC
Wind: Calm:0
Visibility: 4 mile(s):0
Sky conditions: mostly cloudy
Temperature: 93 F (34 C)
Heat index: 116.4 F (46.9 C):1
Dew Point: 82 F (28 C)
Relative Humidity: 71%
Pressure (altimeter): 29.71 in. Hg (1006 hPa)
ob: VLVT 151000Z 00000KT 7000 FEW040 BKN083 34/28 Q1006 NOSIG
cycle: 10

Station Type Date Time Source
VLVT TAF 2024/04/15 06:39 UTC NOAA